Time;durP1;ratioP1;P1;durP2;ratioP2;P2;SDS_P1;SDS_P2;PMS_P1;PMS_P2;Temp;Humidity;BMP_temperature;BMP_pressure;BME280_temperature;BME280_humidity;BME280_pressure;Samples;Min_cycle;Max_cycle;Signal;HPM_P1;HPM_P2
2022/12/17 13:06:13;;;;;;;;;;;0.40;99.90;;;;;;4955539;28;20655;-79
2022/12/17 13:08:39;;;;;;;0.80;0.80;;;0.40;99.90;;;;;;4950426;28;20124;-79
2022/12/17 13:11:27;;;;;;;0.80;0.80;;;0.30;99.90;;;;;;4942692;28;20511;-78
2022/12/17 13:13:58;;;;;;;0.70;0.70;;;0.30;99.90;;;;;;4947181;28;20049;-79
2022/12/17 13:16:35;;;;;;;0.80;0.80;;;0.30;99.90;;;;;;4951728;28;20132;-78
2022/12/17 13:19:17;;;;;;;0.70;0.70;;;0.30;99.90;;;;;;4946249;28;20052;-79
2022/12/17 13:21:43;;;;;;;0.70;0.70;;;0.30;99.90;;;;;;4945167;28;20041;-82
2022/12/17 13:24:21;;;;;;;0.70;0.70;;;0.20;99.90;;;;;;4944929;28;20135;-79
2022/12/17 13:26:47;;;;;;;0.70;0.70;;;0.20;99.90;;;;;;4983955;28;21018;-77
2022/12/17 13:29:27;;;;;;;0.70;0.70;;;0.20;99.90;;;;;;4948857;28;20052;-79
2022/12/17 13:31:53;;;;;;;0.80;0.80;;;0.20;99.90;;;;;;4942419;28;20072;-78
2022/12/17 13:34:27;;;;;;;0.70;0.70;;;0.10;99.90;;;;;;4954914;28;20087;-79
2022/12/17 13:37:25;;;;;;;0.70;0.70;;;0.00;99.90;;;;;;4950914;28;20451;-77
2022/12/17 13:40:14;;;;;;;0.70;0.70;;;0.00;99.90;;;;;;4953940;28;20445;-79
2022/12/17 13:42:43;;;;;;;0.70;0.70;;;0.00;99.90;;;;;;4951030;28;20079;-78
2022/12/17 13:45:17;;;;;;;0.70;0.70;;;-0.10;99.90;;;;;;4948090;28;20080;-78
2022/12/17 13:47:43;;;;;;;0.80;0.80;;;-0.10;99.90;;;;;;4948609;28;20049;-76
2022/12/17 13:50:24;;;;;;;0.90;0.90;;;0.00;99.90;;;;;;4952590;28;20135;-82
2022/12/17 13:52:51;;;;;;;0.80;0.80;;;-0.20;99.90;;;;;;4951272;28;20057;-77
2022/12/17 13:55:25;;;;;;;0.80;0.80;;;-0.20;99.90;;;;;;4943071;28;20470;-79
2022/12/17 13:57:52;;;;;;;0.70;0.70;;;-0.30;99.90;;;;;;4951684;28;21047;-77
2022/12/17 14:00:28;;;;;;;0.80;0.80;;;-0.30;99.90;;;;;;4945493;28;20084;-77
2022/12/17 14:02:54;;;;;;;0.70;0.70;;;-0.40;99.90;;;;;;4952685;28;20124;-78
2022/12/17 14:05:36;;;;;;;0.70;0.70;;;-0.40;99.90;;;;;;4950830;28;20442;-79
2022/12/17 14:08:04;;;;;;;0.75;0.75;;;-0.40;99.90;;;;;;4949058;28;20041;-78
2022/12/17 14:10:31;;;;;;;0.75;0.75;;;-0.50;99.90;;;;;;4926595;28;20049;-78
2022/12/17 14:13:09;;;;;;;0.80;0.80;;;-0.50;99.90;;;;;;4944590;28;20103;-77
2022/12/17 14:15:35;;;;;;;0.80;0.80;;;-0.50;99.90;;;;;;4943884;28;20046;-76
2022/12/17 14:18:02;;;;;;;0.80;0.80;;;-0.50;99.90;;;;;;4942875;28;20064;-77
2022/12/17 14:20:32;;;;;;;0.80;0.80;;;-0.50;99.90;;;;;;4945539;28;20148;-76
2022/12/17 14:23:12;;;;;;;0.80;0.80;;;-0.50;99.90;;;;;;4945691;28;20042;-76
2022/12/17 14:25:39;;;;;;;0.80;0.80;;;-0.50;99.90;;;;;;4945491;28;20076;-77
2022/12/17 14:28:32;;;;;;;0.80;0.80;;;-0.50;99.90;;;;;;4949656;28;20139;-77
2022/12/17 14:31:27;;;;;;;0.80;0.80;;;-0.40;99.90;;;;;;4952313;28;20045;-79
2022/12/17 14:34:08;;;;;;;0.80;0.80;;;-0.40;99.90;;;;;;4940799;28;20155;-78
2022/12/17 14:36:42;;;;;;;0.80;0.80;;;-0.40;99.90;;;;;;4942491;28;20244;-78
2022/12/17 14:39:27;;;;;;;0.80;0.80;;;-0.50;99.90;;;;;;4950449;28;20718;-79
2022/12/17 14:44:52;;;;;;;0.70;0.70;;;-0.50;99.90;;;;;;4950123;28;20591;-79
2022/12/17 14:47:44;;;;;;;0.80;0.80;;;-0.50;99.90;;;;;;4938713;28;20224;-77
2022/12/17 14:50:16;;;;;;;0.80;0.80;;;-0.60;99.90;;;;;;4937713;28;20069;-78
2022/12/17 14:52:54;;;;;;;0.82;0.82;;;-0.50;99.90;;;;;;4949697;28;20065;-78
2022/12/17 14:55:37;;;;;;;0.80;0.80;;;-0.40;99.90;;;;;;4947680;28;20533;-78
2022/12/17 14:58:15;;;;;;;0.80;0.80;;;-0.50;99.90;;;;;;4943461;28;20528;-77
2022/12/17 15:00:46;;;;;;;0.80;0.80;;;-0.50;99.90;;;;;;4945728;28;20691;-77
2022/12/17 15:03:22;;;;;;;0.80;0.80;;;-0.40;99.90;;;;;;4942181;28;20119;-77
2022/12/17 15:05:52;;;;;;;0.80;0.80;;;-0.60;99.90;;;;;;4946153;28;20924;-77
2022/12/17 15:08:19;;;;;;;0.80;0.80;;;-0.60;99.90;;;;;;4943310;28;20057;-78
2022/12/17 15:10:46;;;;;;;0.80;0.80;;;-0.60;99.90;;;;;;4954871;28;20045;-78
2022/12/17 15:13:12;;;;;;;0.80;0.80;;;-0.70;99.90;;;;;;4945414;28;20584;-79
2022/12/17 15:15:38;;;;;;;0.70;0.70;;;-0.70;99.90;;;;;;4946080;28;20488;-79
2022/12/17 15:18:05;;;;;;;0.80;0.80;;;-0.80;99.90;;;;;;4946209;28;20049;-79
2022/12/17 15:20:32;;;;;;;0.90;0.90;;;-0.70;99.90;;;;;;4948944;28;20214;-79
2022/12/17 15:22:59;;;;;;;0.80;0.80;;;-0.70;99.90;;;;;;4942774;28;20282;-79
2022/12/17 15:25:25;;;;;;;0.90;0.90;;;-0.80;99.90;;;;;;4946676;28;20164;-78
2022/12/17 15:27:51;;;;;;;0.80;0.80;;;-0.80;99.90;;;;;;4909910;28;20049;-79
2022/12/17 15:30:18;;;;;;;0.80;0.80;;;-0.90;99.90;;;;;;4942704;28;20930;-79
2022/12/17 15:32:45;;;;;;;0.80;0.80;;;-0.90;99.90;;;;;;4939130;28;20110;-78
2022/12/17 15:35:12;;;;;;;0.80;0.80;;;-0.90;99.90;;;;;;4946377;28;20041;-78
2022/12/17 15:37:38;;;;;;;0.80;0.80;;;-0.80;99.90;;;;;;4945167;28;20053;-79
2022/12/17 15:40:05;;;;;;;0.80;0.80;;;-0.80;99.90;;;;;;4943723;28;20048;-78
2022/12/17 15:45:16;;;;;;;1.00;1.00;;;-0.80;99.90;;;;;;4940281;28;20045;-77
2022/12/17 15:47:42;;;;;;;0.82;0.82;;;-0.80;99.90;;;;;;4944604;28;20055;-78
2022/12/17 15:50:09;;;;;;;0.80;0.80;;;-0.80;99.90;;;;;;4947201;28;20613;-79
2022/12/17 15:52:35;;;;;;;0.80;0.80;;;-0.90;99.90;;;;;;4948627;28;20548;-79
2022/12/17 15:55:01;;;;;;;0.80;0.80;;;-0.90;99.90;;;;;;4945034;28;20049;-80
2022/12/17 15:57:26;;;;;;;0.80;0.80;;;-0.80;99.90;;;;;;4949715;28;20492;-79
2022/12/17 15:59:52;;;;;;;0.80;0.80;;;-1.00;99.90;;;;;;4950293;28;20123;-79
2022/12/17 16:02:18;;;;;;;0.80;0.80;;;-0.80;99.90;;;;;;4943058;28;20493;-78
2022/12/17 16:04:45;;;;;;;0.80;0.80;;;-1.00;99.90;;;;;;4948800;28;20084;-79
2022/12/17 16:07:12;;;;;;;0.80;0.80;;;-0.90;99.90;;;;;;4945557;28;20052;-78
2022/12/17 16:09:38;;;;;;;0.80;0.80;;;-0.90;99.90;;;;;;4940170;28;20507;-78
2022/12/17 16:12:05;;;;;;;0.80;0.80;;;-0.90;99.90;;;;;;4950537;28;20173;-78
2022/12/17 16:14:31;;;;;;;0.80;0.80;;;-1.00;99.90;;;;;;4945772;28;20906;-78
2022/12/17 16:16:56;;;;;;;0.80;0.80;;;-0.90;99.90;;;;;;4943706;28;20048;-78
2022/12/17 16:19:22;;;;;;;0.80;0.80;;;-0.90;99.90;;;;;;4946423;28;20048;-79
2022/12/17 16:21:48;;;;;;;0.80;0.80;;;-0.90;99.90;;;;;;4942525;28;20538;-78
2022/12/17 16:24:14;;;;;;;0.80;0.80;;;-0.90;99.90;;;;;;4946948;28;20089;-78
2022/12/17 16:26:41;;;;;;;0.80;0.80;;;-0.90;99.90;;;;;;4939777;28;20577;-78
2022/12/17 16:29:07;;;;;;;0.80;0.80;;;-0.80;99.90;;;;;;4950235;28;20268;-79
2022/12/17 16:31:32;;;;;;;0.80;0.80;;;-0.80;99.90;;;;;;4956425;28;20044;-78
2022/12/17 16:33:58;;;;;;;0.80;0.80;;;-0.90;99.90;;;;;;4958204;28;20111;-78
2022/12/17 16:36:24;;;;;;;0.80;0.80;;;-0.80;99.90;;;;;;4941618;28;20052;-78
2022/12/17 16:38:53;;;;;;;0.80;0.80;;;-0.80;99.90;;;;;;4952846;28;20103;-78
2022/12/17 16:41:20;;;;;;;0.80;0.80;;;-0.90;99.90;;;;;;4940631;28;20566;-78
2022/12/17 16:43:47;;;;;;;0.80;0.80;;;-0.90;99.90;;;;;;4952320;28;20063;-78
2022/12/17 16:46:22;;;;;;;0.80;0.80;;;-0.90;99.90;;;;;;4948211;28;20107;-79
2022/12/17 16:48:48;;;;;;;0.80;0.80;;;-0.90;99.90;;;;;;4950454;28;20627;-78
2022/12/17 16:51:16;;;;;;;0.90;0.90;;;-0.90;99.90;;;;;;4951871;28;20750;-78
2022/12/17 16:53:43;;;;;;;0.90;0.90;;;-0.90;99.90;;;;;;4948038;28;21095;-78
2022/12/17 16:56:15;;;;;;;0.80;0.80;;;-0.80;99.90;;;;;;4945177;28;20049;-77
2022/12/17 16:58:41;;;;;;;0.80;0.80;;;-0.80;99.90;;;;;;4946724;28;20073;-78
2022/12/17 17:01:08;;;;;;;0.80;0.80;;;-0.90;99.90;;;;;;4948442;28;20111;-78
2022/12/17 17:03:36;;;;;;;0.80;0.80;;;-0.90;99.90;;;;;;4945622;28;20088;-78
2022/12/17 17:06:03;;;;;;;0.80;0.80;;;-0.90;99.90;;;;;;4951035;28;20561;-78
2022/12/17 17:08:29;;;;;;;0.80;0.80;;;-0.90;99.90;;;;;;4943427;28;20049;-78
2022/12/17 17:10:55;;;;;;;0.90;0.90;;;-0.80;99.90;;;;;;4948005;28;20639;-78
2022/12/17 17:13:21;;;;;;;0.80;0.80;;;-0.90;99.90;;;;;;4951625;28;20075;-78
2022/12/17 17:15:47;;;;;;;0.80;0.80;;;-0.90;99.90;;;;;;4943249;28;20780;-78
2022/12/17 17:18:13;;;;;;;0.80;0.80;;;-1.00;99.90;;;;;;4955181;28;20049;-78
2022/12/17 17:20:39;;;;;;;0.73;0.73;;;-1.00;99.90;;;;;;4946243;28;20041;-78
2022/12/17 17:23:05;;;;;;;0.80;0.80;;;-0.90;99.90;;;;;;4952268;28;20056;-77
2022/12/17 17:25:31;;;;;;;0.80;0.80;;;-1.00;99.90;;;;;;4944835;28;20049;-78
2022/12/17 17:27:57;;;;;;;0.80;0.80;;;-1.00;99.90;;;;;;4945947;28;20049;-79
2022/12/17 17:30:23;;;;;;;0.80;0.80;;;-1.00;99.90;;;;;;4951847;28;20418;-78
2022/12/17 17:32:48;;;;;;;0.80;0.80;;;-1.00;99.90;;;;;;4948737;28;20049;-78
2022/12/17 17:35:16;;;;;;;0.80;0.80;;;-1.10;99.90;;;;;;4953755;28;20100;-78
2022/12/17 17:37:41;;;;;;;0.90;0.90;;;-1.10;99.90;;;;;;4940965;28;20049;-78
2022/12/17 17:40:08;;;;;;;0.80;0.80;;;-1.10;99.90;;;;;;4948939;28;20467;-78
2022/12/17 17:42:34;;;;;;;0.80;0.80;;;-1.10;99.90;;;;;;4945156;28;20083;-77
2022/12/17 17:45:02;;;;;;;0.80;0.80;;;-1.00;99.90;;;;;;4954157;28;20585;-79
2022/12/17 17:47:28;;;;;;;0.80;0.80;;;-1.00;99.90;;;;;;4950984;28;20049;-78
2022/12/17 17:49:55;;;;;;;0.90;0.90;;;-1.10;99.90;;;;;;4950762;28;20045;-78
2022/12/17 17:52:21;;;;;;;0.80;0.80;;;-1.10;99.90;;;;;;4930158;28;20706;-78
2022/12/17 17:54:47;;;;;;;0.80;0.80;;;-1.10;99.90;;;;;;4954897;28;20140;-79
2022/12/17 17:57:13;;;;;;;0.90;0.90;;;-1.10;99.90;;;;;;4961007;28;20069;-78
2022/12/17 17:59:39;;;;;;;0.80;0.80;;;-1.30;99.90;;;;;;4958597;28;20432;-78
2022/12/17 18:02:06;;;;;;;0.80;0.80;;;-1.10;99.90;;;;;;4955249;28;20080;-78
2022/12/17 18:04:32;;;;;;;0.80;0.80;;;-1.20;99.90;;;;;;4952982;28;20059;-78
2022/12/17 18:06:57;;;;;;;0.80;0.80;;;-1.10;99.90;;;;;;4959539;28;20950;-77
2022/12/17 18:09:23;;;;;;;0.80;0.80;;;-1.10;99.90;;;;;;4955379;28;20525;-77
2022/12/17 18:11:50;;;;;;;0.82;0.82;;;-1.00;99.90;;;;;;4964964;28;21484;-77
2022/12/17 18:14:17;;;;;;;0.80;0.80;;;-1.10;99.90;;;;;;4954580;28;20263;-77
2022/12/17 18:16:45;;;;;;;0.80;0.80;;;-1.10;99.90;;;;;;4952730;28;20073;-78
2022/12/17 18:19:14;;;;;;;0.80;0.80;;;-1.20;99.90;;;;;;4946219;28;20626;-78
2022/12/17 18:21:40;;;;;;;0.80;0.80;;;-1.10;99.90;;;;;;4942212;28;20399;-77
2022/12/17 18:24:20;;;;;;;0.80;0.80;;;-1.30;99.90;;;;;;4948294;28;20061;-78
2022/12/17 18:26:46;;;;;;;0.80;0.80;;;-1.30;99.90;;;;;;4951993;28;20041;-78
2022/12/17 18:29:19;;;;;;;0.80;0.80;;;-1.30;99.90;;;;;;4954337;28;20049;-78
2022/12/17 18:31:45;;;;;;;0.80;0.80;;;-1.30;99.90;;;;;;4953462;28;20415;-78
2022/12/17 18:34:17;;;;;;;0.80;0.80;;;-1.30;99.90;;;;;;4944581;28;20578;-79
2022/12/17 18:36:44;;;;;;;0.80;0.80;;;-1.30;99.90;;;;;;4945991;28;20042;-78
2022/12/17 18:39:14;;;;;;;0.80;0.80;;;-1.30;99.90;;;;;;4949477;28;20049;-78
2022/12/17 18:44:26;;;;;;;0.88;0.88;;;-1.40;99.90;;;;;;4946045;28;20120;-78
2022/12/17 18:46:52;;;;;;;0.80;0.80;;;-1.30;99.90;;;;;;4947965;28;20513;-78
2022/12/17 18:49:19;;;;;;;0.90;0.90;;;-1.40;99.90;;;;;;4944584;28;20715;-78
2022/12/17 18:51:48;;;;;;;0.80;0.80;;;-1.40;99.90;;;;;;4946004;28;20142;-78
2022/12/17 18:54:17;;;;;;;0.80;0.80;;;-1.30;99.90;;;;;;4940815;28;20053;-77
2022/12/17 18:56:43;;;;;;;0.80;0.80;;;-1.40;99.90;;;;;;4948341;28;20334;-77
2022/12/17 18:59:14;;;;;;;0.80;0.80;;;-1.30;99.90;;;;;;4943458;28;20527;-77
2022/12/17 19:01:41;;;;;;;0.80;0.80;;;-1.30;99.90;;;;;;4948386;28;20041;-78
2022/12/17 19:04:11;;;;;;;0.80;0.80;;;-1.30;99.90;;;;;;4954504;28;20089;-77
2022/12/17 19:06:38;;;;;;;0.73;0.73;;;-1.20;99.90;;;;;;4952273;28;20052;-77
2022/12/17 19:09:06;;;;;;;0.80;0.80;;;-1.10;99.90;;;;;;4969429;28;20049;-77
2022/12/17 19:11:33;;;;;;;0.70;0.70;;;-1.20;99.90;;;;;;4944673;28;20479;-77
2022/12/17 19:13:59;;;;;;;0.80;0.80;;;-1.10;99.90;;;;;;4948278;28;20051;-78
2022/12/17 19:16:27;;;;;;;0.80;0.80;;;-1.20;99.90;;;;;;4949160;28;20053;-77
2022/12/17 19:19:01;;;;;;;0.80;0.80;;;-1.40;99.90;;;;;;4942721;28;20049;-77
2022/12/17 19:21:32;;;;;;;0.90;0.90;;;-1.30;99.90;;;;;;4952242;28;20829;-77
2022/12/17 19:24:04;;;;;;;0.80;0.80;;;-1.40;99.90;;;;;;4948585;28;20071;-77
2022/12/17 19:26:31;;;;;;;0.80;0.80;;;-1.40;99.90;;;;;;4947172;28;20232;-77
2022/12/17 19:28:58;;;;;;;0.80;0.80;;;-1.30;99.90;;;;;;4943046;28;20079;-77
2022/12/17 19:31:26;;;;;;;0.80;0.80;;;-1.40;99.90;;;;;;4947299;28;20045;-77
2022/12/17 19:34:00;;;;;;;0.73;0.73;;;-1.40;99.90;;;;;;4931615;28;20084;-77
2022/12/17 19:36:27;;;;;;;;;;;-1.40;99.90;;;;;;4941788;28;20080;-77
2022/12/17 19:38:55;;;;;;;0.80;0.80;;;-1.30;99.90;;;;;;4943718;28;19994;-77
2022/12/17 19:41:22;;;;;;;0.80;0.80;;;-1.30;99.90;;;;;;4949011;28;20453;-76
2022/12/17 19:43:53;;;;;;;0.80;0.80;;;-1.20;99.90;;;;;;4946564;28;20167;-78
2022/12/17 19:46:19;;;;;;;0.80;0.80;;;-1.40;99.90;;;;;;4944395;28;20075;-78
2022/12/17 19:48:46;;;;;;;0.80;0.80;;;-1.30;99.90;;;;;;4949118;28;20921;-78
2022/12/17 19:51:15;;;;;;;0.80;0.80;;;-1.50;99.90;;;;;;4949815;28;20049;-77
2022/12/17 19:53:42;;;;;;;0.80;0.80;;;-1.50;99.90;;;;;;4964547;28;20642;-78
2022/12/17 19:56:14;;;;;;;0.80;0.80;;;-1.60;99.90;;;;;;4953294;28;20423;-77
2022/12/17 19:58:41;;;;;;;0.80;0.80;;;-1.50;99.90;;;;;;4954430;28;20051;-80
2022/12/17 20:01:11;;;;;;;0.80;0.80;;;-1.60;99.90;;;;;;4949034;28;20053;-78
2022/12/17 20:03:37;;;;;;;0.80;0.80;;;-1.60;99.90;;;;;;4952609;28;20296;-77
2022/12/17 20:06:05;;;;;;;0.90;0.90;;;-1.60;99.90;;;;;;4945033;28;20057;-78
2022/12/17 20:08:32;;;;;;;0.80;0.80;;;-1.70;99.90;;;;;;4946433;28;20045;-77
2022/12/17 20:11:01;;;;;;;0.80;0.80;;;-1.60;99.90;;;;;;4946590;28;20041;-78
2022/12/17 20:13:27;;;;;;;0.80;0.80;;;-1.60;99.90;;;;;;4943127;28;20114;-77
2022/12/17 20:16:04;;;;;;;0.80;0.80;;;-1.60;99.90;;;;;;4944395;28;20064;-77
2022/12/17 20:18:31;;;;;;;0.88;0.88;;;-1.60;99.90;;;;;;4958648;28;20207;-77
2022/12/17 20:21:04;;;;;;;0.80;0.80;;;-1.60;99.90;;;;;;4952091;28;20060;-77
2022/12/17 20:23:31;;;;;;;;;;;-1.50;99.90;;;;;;4965466;28;20138;-77
2022/12/17 20:26:04;;;;;;;0.80;0.80;;;-1.60;99.90;;;;;;4949317;28;20531;-78
2022/12/17 20:28:32;;;;;;;0.80;0.80;;;-1.50;99.90;;;;;;4949904;28;20189;-76
2022/12/17 20:30:58;;;;;;;2.67;2.35;;;-1.50;99.90;;;;;;4946547;28;20569;-76
2022/12/17 20:33:24;;;;;;;0.80;0.80;;;-1.50;99.90;;;;;;4950440;28;20433;-77
2022/12/17 20:35:50;;;;;;;0.80;0.80;;;-1.50;99.90;;;;;;4941089;28;20918;-77
2022/12/17 20:38:16;;;;;;;0.90;0.90;;;-1.50;99.90;;;;;;4949798;28;20446;-77
2022/12/17 20:40:42;;;;;;;0.90;0.90;;;-1.60;99.90;;;;;;4942041;28;20049;-77
2022/12/17 20:43:08;;;;;;;0.80;0.80;;;-1.70;99.90;;;;;;4946172;28;20037;-77
2022/12/17 20:45:34;;;;;;;0.80;0.80;;;-1.80;99.90;;;;;;4940567;28;20049;-77
2022/12/17 20:48:01;;;;;;;0.80;0.80;;;-1.80;99.90;;;;;;4952738;28;20060;-77
2022/12/17 20:50:27;;;;;;;1.45;1.42;;;-1.70;99.90;;;;;;4942368;28;20171;-76
2022/12/17 20:52:52;;;;;;;0.90;0.90;;;-1.70;99.90;;;;;;4949404;28;20428;-77
2022/12/17 20:55:19;;;;;;;0.90;0.90;;;-1.70;99.90;;;;;;4946556;28;20164;-77
2022/12/17 20:57:45;;;;;;;0.80;0.80;;;-1.70;99.90;;;;;;4951600;28;20164;-77
2022/12/17 21:00:11;;;;;;;0.90;0.90;;;-1.70;99.90;;;;;;4948807;28;20082;-77
2022/12/17 21:02:37;;;;;;;0.80;0.80;;;-1.80;99.90;;;;;;4956330;28;20080;-76
2022/12/17 21:05:04;;;;;;;0.80;0.80;;;-1.60;99.90;;;;;;4957763;28;20045;-76
2022/12/17 21:07:30;;;;;;;0.90;0.90;;;-1.60;99.90;;;;;;4950130;28;20666;-76
2022/12/17 21:09:56;;;;;;;0.90;0.90;;;-1.70;99.90;;;;;;4956677;28;20874;-77
2022/12/17 21:12:22;;;;;;;0.90;0.90;;;-1.80;99.90;;;;;;4947053;28;20053;-77
2022/12/17 21:14:48;;;;;;;0.88;0.88;;;-1.90;99.90;;;;;;4954484;28;20052;-77
2022/12/17 21:17:14;;;;;;;0.90;0.90;;;-1.90;99.90;;;;;;4969429;28;20602;-77
2022/12/17 21:19:40;;;;;;;0.90;0.90;;;-1.90;99.90;;;;;;4970930;28;20053;-77
2022/12/17 21:22:06;;;;;;;0.90;0.90;;;-1.90;99.90;;;;;;4976723;28;20051;-76
2022/12/17 21:24:32;;;;;;;0.90;0.90;;;-1.90;99.90;;;;;;4978491;28;20879;-76
2022/12/17 21:26:58;;;;;;;0.80;0.80;;;-1.90;99.90;;;;;;4968045;28;20139;-77
2022/12/17 21:29:24;;;;;;;0.80;0.80;;;-1.90;99.90;;;;;;4960758;28;20053;-76
2022/12/17 21:31:51;;;;;;;0.90;0.90;;;-1.80;99.90;;;;;;4970880;28;20087;-77
2022/12/17 21:34:22;;;;;;;0.80;0.80;;;-2.00;99.90;;;;;;4971144;28;20053;-76
2022/12/17 21:36:49;;;;;;;0.90;0.90;;;-1.90;99.90;;;;;;4971979;28;20575;-77
2022/12/17 21:39:16;;;;;;;1.08;0.98;;;-2.00;99.90;;;;;;4970421;28;20045;-77
2022/12/17 21:43:00;;;;;;;0.90;0.90;;;-2.00;99.90;;;;;;4976156;28;20144;-77
2022/12/17 21:44:29;;;;;;;0.80;0.80;;;-2.00;99.90;;;;;;4970623;28;20060;-77
2022/12/17 21:46:55;;;;;;;0.90;0.90;;;-2.00;99.90;;;;;;4973932;28;20762;-77
2022/12/17 21:49:21;;;;;;;0.90;0.90;;;-1.90;99.90;;;;;;4956917;28;20612;-77
2022/12/17 21:51:47;;;;;;;0.80;0.80;;;-1.90;99.90;;;;;;4960629;28;20049;-76
2022/12/17 21:54:13;;;;;;;0.80;0.80;;;-1.90;99.90;;;;;;4967747;28;20041;-77
2022/12/17 21:56:39;;;;;;;0.88;0.88;;;-2.00;99.90;;;;;;4972697;28;20044;-76
2022/12/17 21:59:05;;;;;;;0.80;0.80;;;-1.90;99.90;;;;;;4966252;28;20067;-77
2022/12/17 22:01:32;;;;;;;0.90;0.90;;;-2.10;99.90;;;;;;4946710;28;20442;-78
2022/12/17 22:04:00;;;;;;;0.90;0.90;;;-2.20;99.90;;;;;;4961336;28;20058;-77
2022/12/17 22:06:28;;;;;;;0.90;0.90;;;-2.20;99.90;;;;;;4967459;28;20060;-78
2022/12/17 22:08:56;;;;;;;0.80;0.80;;;-2.20;99.90;;;;;;4966369;28;20571;-78
2022/12/17 22:11:24;;;;;;;0.80;0.80;;;-2.30;99.90;;;;;;4956223;28;20410;-78
2022/12/17 22:14:08;;;;;;;0.90;0.90;;;-2.30;99.90;;;;;;4961595;28;20051;-77
2022/12/17 22:16:42;;;;;;;0.90;0.90;;;-2.40;99.90;;;;;;4963604;28;20381;-77
2022/12/17 22:19:19;;;;;;;0.85;0.85;;;-2.40;99.90;;;;;;4951457;28;20374;-77
2022/12/17 22:21:46;;;;;;;0.82;0.82;;;-2.40;99.90;;;;;;4958668;28;20516;-78
2022/12/17 22:24:18;;;;;;;0.90;0.90;;;-2.40;99.90;;;;;;4957543;28;20045;-77
2022/12/17 22:26:45;;;;;;;0.90;0.90;;;-2.30;99.90;;;;;;4963999;28;20401;-77
2022/12/17 22:32:58;;;;;;;0.90;0.90;;;-2.20;99.90;;;;;;4956093;28;20052;-77
2022/12/17 22:34:42;;;;;;;0.90;0.90;;;-2.20;99.90;;;;;;4955876;28;21014;-78
2022/12/17 22:37:08;;;;;;;1.55;1.48;;;-2.30;99.90;;;;;;4955205;28;20053;-77
2022/12/17 22:39:34;;;;;;;0.90;0.90;;;-2.30;99.90;;;;;;4959194;28;20505;-77
2022/12/17 22:44:44;;;;;;;0.80;0.80;;;-2.40;99.90;;;;;;4955924;28;20524;-77
2022/12/17 22:47:10;;;;;;;0.90;0.90;;;-2.30;99.90;;;;;;4953149;28;20037;-77
2022/12/17 22:49:36;;;;;;;0.90;0.90;;;-2.30;99.90;;;;;;4955760;28;20182;-76
2022/12/17 22:52:02;;;;;;;0.85;0.85;;;-2.30;99.90;;;;;;4968698;28;20048;-76
2022/12/17 22:54:28;;;;;;;0.90;0.90;;;-2.30;99.90;;;;;;4960644;28;20045;-76
2022/12/17 22:56:54;;;;;;;0.90;0.90;;;-2.30;99.90;;;;;;4955896;28;20056;-76
2022/12/17 22:59:20;;;;;;;0.80;0.80;;;-2.10;99.90;;;;;;4952964;28;20045;-76
2022/12/17 23:01:46;;;;;;;0.80;0.80;;;-2.20;99.90;;;;;;4946695;28;20049;-77
2022/12/17 23:04:15;;;;;;;0.98;0.98;;;-2.30;99.90;;;;;;4950618;28;20663;-77
2022/12/17 23:06:46;;;;;;;0.80;0.80;;;-2.20;99.90;;;;;;4947876;28;20076;-77
2022/12/17 23:09:14;;;;;;;0.90;0.90;;;-2.30;99.90;;;;;;4946281;28;20844;-76
2022/12/17 23:11:40;;;;;;;0.82;0.82;;;-2.30;99.90;;;;;;4951694;28;20518;-76
2022/12/17 23:14:07;;;;;;;0.90;0.90;;;-2.10;99.90;;;;;;4943864;28;20182;-76
2022/12/17 23:16:33;;;;;;;0.80;0.80;;;-2.20;99.90;;;;;;4944490;28;20099;-76
2022/12/17 23:19:00;;;;;;;0.82;0.82;;;-2.30;99.90;;;;;;4942089;28;20379;-76
2022/12/17 23:21:27;;;;;;;0.90;0.90;;;-2.20;99.90;;;;;;4941588;28;20045;-76
2022/12/17 23:23:55;;;;;;;0.80;0.80;;;-2.20;99.90;;;;;;4944358;28;20947;-77
2022/12/17 23:26:26;;;;;;;0.90;0.90;;;-2.40;99.90;;;;;;4942038;28;20844;-76
2022/12/17 23:28:57;;;;;;;0.85;0.85;;;-2.30;99.90;;;;;;4947134;28;20049;-77
2022/12/17 23:31:27;;;;;;;0.90;0.90;;;-2.50;99.90;;;;;;4944315;28;20099;-77
2022/12/17 23:33:53;;;;;;;0.80;0.80;;;-2.40;99.90;;;;;;4934594;28;20489;-76
2022/12/17 23:36:21;;;;;;;0.88;0.88;;;-2.50;99.90;;;;;;4948374;28;20084;-77
2022/12/17 23:38:48;;;;;;;0.80;0.80;;;-2.60;99.90;;;;;;4948105;28;20057;-77
2022/12/17 23:41:16;;;;;;;0.90;0.90;;;-2.80;99.90;;;;;;4957209;28;20345;-77
2022/12/17 23:43:43;;;;;;;0.80;0.80;;;-3.00;99.90;;;;;;4947038;28;20580;-77
2022/12/17 23:46:10;;;;;;;0.80;0.80;;;-3.10;99.90;;;;;;4945404;28;20446;-76
2022/12/17 23:48:39;;;;;;;0.80;0.80;;;-3.10;99.90;;;;;;4946450;28;20204;-77
2022/12/17 23:51:05;;;;;;;0.82;0.82;;;-3.20;99.90;;;;;;4947913;28;20741;-76
2022/12/17 23:53:33;;;;;;;0.90;0.90;;;-3.30;99.90;;;;;;4958736;28;20088;-76
2022/12/17 23:56:13;;;;;;;0.80;0.80;;;-3.20;99.90;;;;;;4948162;28;20041;-76
2022/12/17 23:58:41;;;;;;;0.80;0.80;;;-3.30;99.90;;;;;;4958187;28;20041;-76
